createdAt,value
2019-01-22T00:00:15.493Z,-6.10
2019-01-22T00:02:44.136Z,-6.10
2019-01-22T00:05:13.154Z,-6.10
2019-01-22T00:07:41.582Z,-6.10
2019-01-22T00:10:11.212Z,-6.00
2019-01-22T00:12:39.950Z,-5.80
2019-01-22T00:15:11.124Z,-5.80
2019-01-22T00:17:39.947Z,-6.00
2019-01-22T00:20:10.694Z,-6.00
2019-01-22T00:22:39.113Z,-6.00
2019-01-22T00:25:12.242Z,-6.10
2019-01-22T00:27:40.741Z,-6.20
2019-01-22T00:30:15.753Z,-6.40
2019-01-22T00:32:44.177Z,-6.30
2019-01-22T00:35:12.873Z,-6.30
2019-01-22T00:37:41.296Z,-6.20
2019-01-22T00:40:13.209Z,-6.10
2019-01-22T00:42:42.150Z,-6.00
2019-01-22T00:45:10.730Z,-6.00
2019-01-22T00:47:39.305Z,-5.90
2019-01-22T00:50:10.842Z,-6.00
2019-01-22T00:52:39.484Z,-6.00
2019-01-22T00:55:10.566Z,-5.90
2019-01-22T00:57:39.045Z,-6.00
2019-01-22T01:00:13.949Z,-5.90
2019-01-22T01:02:42.450Z,-5.80
2019-01-22T01:05:11.230Z,-5.70
2019-01-22T01:07:39.657Z,-5.70
2019-01-22T01:10:10.826Z,-5.50
2019-01-22T01:12:39.741Z,-5.50
2019-01-22T01:15:11.165Z,-5.40
2019-01-22T01:17:39.592Z,-5.50
2019-01-22T01:20:17.601Z,-5.60
2019-01-22T01:22:46.286Z,-5.60
2019-01-22T01:25:17.175Z,-5.40
2019-01-22T01:27:46.001Z,-5.40
2019-01-22T01:30:17.436Z,-5.40
2019-01-22T01:32:45.990Z,-5.40
2019-01-22T01:35:14.579Z,-5.50
2019-01-22T01:37:44.791Z,-5.60
2019-01-22T01:40:15.787Z,-5.70
2019-01-22T01:42:44.671Z,-5.70
2019-01-22T01:45:14.366Z,-5.70
2019-01-22T01:47:43.399Z,-5.70
2019-01-22T01:50:16.850Z,-5.60
2019-01-22T01:52:45.718Z,-5.50
2019-01-22T01:55:16.193Z,-5.40
2019-01-22T01:57:44.786Z,-5.30
2019-01-22T02:00:16.302Z,-5.30
2019-01-22T02:02:44.880Z,-5.30
2019-01-22T02:05:13.412Z,-5.30
2019-01-22T02:07:41.987Z,-5.30
2019-01-22T02:10:16.361Z,-5.40
2019-01-22T02:12:56.751Z,-5.40
2019-01-22T02:15:37.814Z,-5.40
2019-01-22T02:18:21.153Z,-5.40
2019-01-22T02:21:01.942Z,-5.20
2019-01-22T02:23:39.502Z,-5.30
2019-01-22T02:26:30.943Z,-5.30
2019-01-22T02:29:02.550Z,-5.30
2019-01-22T02:31:58.339Z,-5.30
2019-01-22T02:34:33.193Z,-5.40
2019-01-22T02:37:16.300Z,-5.40
2019-01-22T02:39:50.449Z,-5.40
2019-01-22T02:42:22.800Z,-5.50
2019-01-22T02:44:59.844Z,-5.40
2019-01-22T02:47:31.446Z,-5.40
2019-01-22T02:50:27.441Z,-5.40
2019-01-22T02:53:10.786Z,-5.30
2019-01-22T02:55:48.574Z,-5.30
2019-01-22T02:58:40.298Z,-5.30
2019-01-22T03:01:17.858Z,-5.30
2019-01-22T03:03:55.425Z,-5.20
2019-01-22T03:06:44.634Z,-5.20
2019-01-22T03:09:18.836Z,-5.20
2019-01-22T03:12:02.681Z,-5.20
2019-01-22T03:14:49.324Z,-5.20
2019-01-22T03:17:26.918Z,-5.20
2019-01-22T03:20:01.181Z,-5.10
2019-01-22T03:22:32.788Z,-5.00
2019-01-22T03:25:07.602Z,-5.10
2019-01-22T03:27:39.117Z,-5.10
2019-01-22T03:30:46.257Z,-5.10
2019-01-22T03:33:26.701Z,-5.20
2019-01-22T03:36:29.914Z,-5.10
2019-01-22T03:39:22.790Z,-5.00
2019-01-22T03:42:12.427Z,-5.00
2019-01-22T03:44:50.330Z,-5.10
2019-01-22T03:47:37.013Z,-5.20
2019-01-22T03:50:31.251Z,-5.20
2019-01-22T03:53:14.913Z,-5.20
2019-01-22T03:56:03.116Z,-5.20
2019-01-22T03:58:31.567Z,-5.10
2019-01-22T04:01:03.262Z,-3.80
2019-01-22T04:03:31.685Z,-5.10
2019-01-22T04:06:01.573Z,-5.00
2019-01-22T04:08:30.141Z,-5.00
2019-01-22T04:11:00.420Z,-5.00
2019-01-22T04:13:28.980Z,-5.00
2019-01-22T04:15:57.714Z,-5.00
2019-01-22T04:18:26.601Z,-5.00
2019-01-22T04:20:55.214Z,-4.80
2019-01-22T04:23:29.713Z,-4.80
2019-01-22T04:26:16.303Z,-4.80
2019-01-22T04:28:56.693Z,-4.70
2019-01-22T04:31:28.217Z,-4.80
2019-01-22T04:34:27.450Z,-4.90
2019-01-22T04:37:08.526Z,-4.90
2019-01-22T04:39:42.768Z,-4.90
2019-01-22T04:42:29.663Z,-4.90
2019-01-22T04:45:23.622Z,-4.90
2019-01-22T04:48:22.619Z,-5.00
2019-01-22T04:51:18.153Z,-5.00
2019-01-22T04:54:09.899Z,-5.10
2019-01-22T04:56:56.603Z,-5.20
2019-01-22T04:59:44.609Z,-5.10
2019-01-22T05:02:36.317Z,-5.10
2019-01-22T05:05:19.798Z,-5.10
2019-01-22T05:07:53.884Z,-5.10
2019-01-22T05:10:28.438Z,-5.00
2019-01-22T05:13:14.601Z,-4.90
2019-01-22T05:16:09.094Z,-4.90
2019-01-22T05:18:46.370Z,-4.90
2019-01-22T05:21:42.025Z,-4.90
2019-01-22T05:24:36.206Z,-4.70
2019-01-22T05:27:19.853Z,-4.80
2019-01-22T05:29:54.388Z,-4.90
2019-01-22T05:32:44.498Z,-5.00
2019-01-22T05:35:31.151Z,-4.90
2019-01-22T05:38:09.554Z,-4.90
2019-01-22T05:40:50.233Z,-4.90
2019-01-22T05:43:39.761Z,-4.90
2019-01-22T05:46:20.308Z,-4.70
2019-01-22T05:49:04.126Z,-4.70
2019-01-22T05:51:36.007Z,-4.60
2019-01-22T05:54:10.581Z,-4.50
2019-01-22T05:56:42.112Z,-4.50
2019-01-22T05:59:25.555Z,-4.50
2019-01-22T06:01:57.078Z,-4.40
2019-01-22T06:04:34.410Z,-4.40
2019-01-22T06:07:14.716Z,-4.40
2019-01-22T06:09:55.501Z,-4.40
2019-01-22T06:12:36.006Z,-4.40
2019-01-22T06:15:10.089Z,-4.40
2019-01-22T06:17:44.346Z,-4.40
2019-01-22T06:20:24.525Z,-4.40
2019-01-22T06:22:56.355Z,-4.30
2019-01-22T06:25:52.382Z,-4.20
2019-01-22T06:28:55.773Z,-4.20
2019-01-22T06:31:39.212Z,-4.00
2019-01-22T06:34:16.275Z,-3.90
2019-01-22T06:36:50.415Z,-3.90
2019-01-22T06:39:39.418Z,-3.90
2019-01-22T06:42:38.637Z,-3.90
2019-01-22T06:45:17.820Z,-3.80
2019-01-22T06:48:07.071Z,-3.70
2019-01-22T06:50:56.749Z,-3.60
2019-01-22T06:53:37.299Z,-3.60
2019-01-22T06:56:12.190Z,-3.50
2019-01-22T06:58:56.103Z,-3.50
2019-01-22T07:01:27.618Z,-3.50
2019-01-22T07:04:02.325Z,-3.50
2019-01-22T07:06:36.801Z,-3.40
2019-01-22T07:09:29.720Z,-3.40
2019-01-22T07:12:12.737Z,-3.40
2019-01-22T07:14:53.077Z,-3.40
2019-01-22T07:17:24.889Z,-3.40
2019-01-22T07:19:59.413Z,-3.40
2019-01-22T07:22:39.879Z,-3.40
2019-01-22T07:25:29.356Z,-3.40
2019-01-22T07:28:13.002Z,-3.40
2019-01-22T07:30:56.594Z,-3.40
2019-01-22T07:33:30.677Z,-3.40
2019-01-22T07:36:02.472Z,-3.30
2019-01-22T07:38:40.198Z,-3.30
2019-01-22T07:41:17.965Z,-3.20
2019-01-22T07:43:55.317Z,-3.20
2019-01-22T07:46:52.733Z,-3.20
2019-01-22T07:49:36.276Z,-3.10
2019-01-22T07:52:17.546Z,-3.10
2019-01-22T07:55:04.005Z,-3.20
2019-01-22T07:58:09.097Z,-3.20
2019-01-22T08:00:46.437Z,-3.20
2019-01-22T08:03:22.635Z,-3.10
2019-01-22T08:05:55.801Z,-3.10
2019-01-22T08:08:34.401Z,-3.20
2019-01-22T08:11:36.433Z,-3.20
2019-01-22T08:14:16.300Z,-3.10
2019-01-22T08:17:05.789Z,-3.10
2019-01-22T08:19:37.314Z,-3.20
2019-01-22T08:22:34.390Z,-3.20
2019-01-22T08:25:08.778Z,-3.10
2019-01-22T08:27:40.306Z,-3.00
2019-01-22T08:30:23.974Z,-3.00
2019-01-22T08:33:01.519Z,-3.00
2019-01-22T08:35:44.797Z,-3.00
2019-01-22T08:38:22.607Z,-3.00
2019-01-22T08:41:25.578Z,-3.00
2019-01-22T08:44:15.197Z,-2.90
2019-01-22T08:46:46.714Z,-2.90
2019-01-22T08:49:18.242Z,-2.90
2019-01-22T08:52:02.105Z,-2.90
2019-01-22T08:54:36.197Z,-2.90
2019-01-22T08:57:24.301Z,-2.80
2019-01-22T08:59:56.126Z,-2.80
2019-01-22T09:02:33.643Z,-2.90
2019-01-22T09:05:05.209Z,-2.80
2019-01-22T09:07:54.801Z,-2.80
2019-01-22T09:10:48.562Z,-2.90
2019-01-22T09:13:31.812Z,-2.80
2019-01-22T09:16:18.457Z,-2.70
2019-01-22T09:18:58.949Z,-2.80
2019-01-22T09:21:36.514Z,-2.80
2019-01-22T09:24:29.570Z,-2.80
2019-01-22T09:27:05.630Z,-2.70
2019-01-22T09:29:43.031Z,-2.80
2019-01-22T09:32:46.290Z,-2.70
2019-01-22T09:35:40.813Z,-2.70
2019-01-22T09:38:10.350Z,-2.80
2019-01-22T09:40:38.869Z,-2.80
2019-01-22T09:43:10.350Z,-2.80
2019-01-22T09:45:38.936Z,-2.80
2019-01-22T09:48:07.365Z,-2.70
2019-01-22T09:50:35.801Z,-2.80
2019-01-22T09:53:04.409Z,-2.80
2019-01-22T09:55:32.886Z,-2.70
2019-01-22T09:58:01.335Z,-2.80
2019-01-22T10:00:30.353Z,-2.80
2019-01-22T10:02:58.942Z,-2.70
2019-01-22T10:05:28.750Z,-2.60
2019-01-22T10:07:57.623Z,-2.60
2019-01-22T10:10:26.514Z,-2.60
2019-01-22T10:12:55.421Z,-2.80
2019-01-22T10:15:24.189Z,-2.70
2019-01-22T10:17:52.982Z,-2.70
2019-01-22T10:20:23.549Z,-2.70
2019-01-22T10:22:52.456Z,-2.60
2019-01-22T10:25:20.889Z,-2.60
2019-01-22T10:27:49.329Z,-2.70
2019-01-22T10:30:20.840Z,-2.60
2019-01-22T10:32:49.288Z,-2.50
2019-01-22T10:35:17.787Z,-2.60
2019-01-22T10:37:46.229Z,-2.50
2019-01-22T10:40:17.298Z,-2.40
2019-01-22T10:42:45.918Z,-2.40
2019-01-22T10:45:16.845Z,-2.40
2019-01-22T10:47:45.720Z,-2.50
2019-01-22T10:50:17.710Z,-2.50
2019-01-22T10:52:46.469Z,-2.60
2019-01-22T10:55:16.094Z,-2.60
2019-01-22T10:57:44.985Z,-2.60
2019-01-22T11:00:30.754Z,-2.70
2019-01-22T11:02:59.263Z,-2.70
2019-01-22T11:05:30.729Z,-2.60
2019-01-22T11:07:59.489Z,-2.50
2019-01-22T11:10:28.261Z,-2.50
2019-01-22T11:12:56.706Z,-2.50
2019-01-22T11:15:27.957Z,-2.50
2019-01-22T11:17:55.657Z,-2.50
2019-01-22T11:20:26.596Z,-2.50
2019-01-22T11:22:55.205Z,-2.40
2019-01-22T11:25:26.382Z,-2.50
2019-01-22T11:27:55.838Z,-2.50
2019-01-22T11:30:25.301Z,-2.40
2019-01-22T11:32:55.461Z,-2.40
2019-01-22T11:35:25.195Z,-2.40
2019-01-22T11:37:54.373Z,-2.40
2019-01-22T11:40:34.757Z,-2.40
2019-01-22T11:43:03.546Z,-2.40
2019-01-22T11:45:32.074Z,-2.40
2019-01-22T11:48:00.645Z,-2.40
2019-01-22T11:50:29.134Z,-2.40
2019-01-22T11:52:57.645Z,-2.40
2019-01-22T11:55:27.273Z,-2.40
2019-01-22T11:57:56.138Z,-2.30
2019-01-22T12:00:34.867Z,-2.30
2019-01-22T12:03:05.190Z,-2.30
2019-01-22T12:05:33.878Z,-2.30
2019-01-22T12:08:02.666Z,-2.40
2019-01-22T12:10:31.330Z,-2.30
2019-01-22T12:13:00.054Z,-2.30
2019-01-22T12:15:28.621Z,-2.40
2019-01-22T12:17:57.315Z,-2.30
2019-01-22T12:20:37.110Z,-2.30
2019-01-22T12:23:06.062Z,-2.20
2019-01-22T12:25:38.141Z,-2.30
2019-01-22T12:28:06.734Z,-2.30
2019-01-22T12:30:37.580Z,-2.30
2019-01-22T12:33:06.541Z,-2.20
2019-01-22T12:35:35.317Z,-2.20
2019-01-22T12:38:04.610Z,-2.10
2019-01-22T12:40:33.077Z,-2.20
2019-01-22T12:43:01.778Z,-2.10
2019-01-22T12:45:34.506Z,-2.00
2019-01-22T12:48:03.677Z,-2.10
2019-01-22T12:50:32.737Z,-2.20
2019-01-22T12:53:01.247Z,-2.20
2019-01-22T12:55:29.690Z,-2.30
2019-01-22T12:57:58.186Z,-2.30
2019-01-22T13:00:32.568Z,-2.20
2019-01-22T13:03:01.138Z,-2.20
2019-01-22T13:05:44.230Z,-2.10
2019-01-22T13:08:12.894Z,-2.10
2019-01-22T13:10:41.723Z,-2.10
2019-01-22T13:13:10.223Z,-2.10
2019-01-22T13:15:39.073Z,-2.10
2019-01-22T13:18:07.862Z,-2.20
2019-01-22T13:20:36.978Z,-2.10
2019-01-22T13:23:05.646Z,-2.20
2019-01-22T13:25:34.101Z,-2.20
2019-01-22T13:28:02.691Z,-2.20
2019-01-22T13:30:32.358Z,-2.20
2019-01-22T13:33:01.433Z,-2.30
2019-01-22T13:35:32.118Z,-2.30
2019-01-22T13:38:00.947Z,-2.30
2019-01-22T13:40:29.384Z,-2.30
2019-01-22T13:42:57.819Z,-2.30
2019-01-22T13:45:29.270Z,-2.20
2019-01-22T13:47:59.388Z,-2.10
2019-01-22T13:50:27.897Z,-2.20
2019-01-22T13:52:56.410Z,-2.20
2019-01-22T13:55:30.152Z,-2.20
2019-01-22T13:57:58.925Z,-2.20
2019-01-22T14:00:28.713Z,-2.30
2019-01-22T14:02:59.532Z,-2.30
2019-01-22T14:05:28.847Z,-2.40
2019-01-22T14:08:12.346Z,-2.40
2019-01-22T14:10:41.250Z,-2.40
2019-01-22T14:13:10.094Z,-2.30
2019-01-22T14:15:40.773Z,-2.30
2019-01-22T14:18:10.201Z,-2.20
2019-01-22T14:20:38.897Z,-2.20
2019-01-22T14:23:07.940Z,-2.20
2019-01-22T14:25:36.821Z,-2.20
2019-01-22T14:28:05.608Z,-2.10
2019-01-22T14:30:36.310Z,-2.20
2019-01-22T14:33:05.534Z,-2.20
2019-01-22T14:35:34.219Z,-2.30
2019-01-22T14:38:02.729Z,-2.10
2019-01-22T14:40:31.157Z,-2.00
2019-01-22T14:43:00.064Z,-2.00
2019-01-22T14:45:28.849Z,-2.10
2019-01-22T14:47:57.299Z,-2.20
2019-01-22T14:50:30.883Z,-2.20
2019-01-22T14:52:59.329Z,-2.20
2019-01-22T14:55:27.771Z,-2.30
2019-01-22T14:57:56.547Z,-2.30
2019-01-22T15:00:50.279Z,-2.20
2019-01-22T15:03:18.862Z,-2.20
2019-01-22T15:05:49.562Z,-2.20
2019-01-22T15:08:18.393Z,-2.20
2019-01-22T15:10:46.822Z,-2.20
2019-01-22T15:13:15.525Z,-2.20
2019-01-22T15:15:44.220Z,-2.30
2019-01-22T15:18:13.029Z,-2.20
2019-01-22T15:20:41.798Z,-2.20
2019-01-22T15:23:10.588Z,-2.20
2019-01-22T15:25:39.398Z,-2.20
2019-01-22T15:28:07.913Z,-2.20
2019-01-22T15:30:36.409Z,-2.20
2019-01-22T15:33:05.389Z,-2.20
2019-01-22T15:35:34.218Z,-2.20
2019-01-22T15:38:02.669Z,-2.20
2019-01-22T15:40:31.756Z,-2.20
2019-01-22T15:43:00.691Z,-2.10
2019-01-22T15:45:30.618Z,-2.10
2019-01-22T15:47:59.213Z,-2.10
2019-01-22T15:50:27.975Z,-2.10
2019-01-22T15:52:56.421Z,-2.10
2019-01-22T15:55:30.679Z,-2.20
2019-01-22T15:57:59.568Z,-2.20
2019-01-22T16:00:29.001Z,-2.20
2019-01-22T16:02:57.582Z,-2.10
2019-01-22T16:05:26.201Z,-2.10
2019-01-22T16:07:54.641Z,-2.10
2019-01-22T16:10:23.405Z,-2.10
2019-01-22T16:12:51.901Z,-2.10
2019-01-22T16:15:24.366Z,-2.10
2019-01-22T16:17:53.940Z,-2.00
2019-01-22T16:20:25.214Z,-2.00
2019-01-22T16:22:53.781Z,-2.10
2019-01-22T16:25:26.483Z,-2.00
2019-01-22T16:27:55.005Z,-2.10
2019-01-22T16:30:25.301Z,-2.20
2019-01-22T16:32:54.174Z,-2.20
2019-01-22T16:35:24.263Z,-2.10
2019-01-22T16:37:53.189Z,-2.20
2019-01-22T16:40:21.774Z,-2.10
2019-01-22T16:42:50.761Z,-2.10
2019-01-22T16:45:31.037Z,-2.10
2019-01-22T16:47:59.842Z,-2.10
2019-01-22T16:50:30.426Z,-2.20
2019-01-22T16:52:59.590Z,-2.10
2019-01-22T16:55:33.472Z,-2.20
2019-01-22T16:58:01.897Z,-2.20
2019-01-22T17:00:33.080Z,-2.20
2019-01-22T17:03:01.705Z,-2.20
2019-01-22T17:05:30.754Z,-2.20
2019-01-22T17:07:59.546Z,-2.20
2019-01-22T17:10:28.060Z,-2.20
2019-01-22T17:12:56.829Z,-2.20
2019-01-22T17:15:25.472Z,-2.20
2019-01-22T17:17:53.902Z,-2.30
2019-01-22T17:20:25.434Z,-2.40
2019-01-22T17:22:54.230Z,-2.40
2019-01-22T17:25:22.735Z,-2.40
2019-01-22T17:27:51.230Z,-2.50
2019-01-22T17:30:21.716Z,-2.50
2019-01-22T17:33:02.177Z,-2.50
2019-01-22T17:35:31.904Z,-2.50
2019-01-22T17:38:00.658Z,-2.60
2019-01-22T17:40:29.113Z,-2.60
2019-01-22T17:42:58.049Z,-2.60
2019-01-22T17:45:26.859Z,-2.50
2019-01-22T17:47:55.408Z,-2.60
2019-01-22T17:50:26.638Z,-2.50
2019-01-22T17:52:56.850Z,-2.40
2019-01-22T17:55:25.677Z,-2.50
2019-01-22T17:57:54.205Z,-2.50
2019-01-22T18:00:30.137Z,-2.50
2019-01-22T18:02:58.658Z,-2.50
2019-01-22T18:05:27.159Z,-2.50
2019-01-22T18:07:55.604Z,-2.50
2019-01-22T18:10:25.674Z,-2.60
2019-01-22T18:12:54.485Z,-2.50
2019-01-22T18:15:24.156Z,-2.50
2019-01-22T18:17:52.592Z,-2.30
2019-01-22T18:20:26.908Z,-2.20
2019-01-22T18:22:55.510Z,-2.20
2019-01-22T18:25:24.349Z,-2.30
2019-01-22T18:27:53.185Z,-2.30
2019-01-22T18:30:23.627Z,-2.30
2019-01-22T18:32:52.210Z,-2.30
2019-01-22T18:35:23.549Z,-2.30
2019-01-22T18:37:53.537Z,-2.20
2019-01-22T18:40:22.077Z,-2.00
2019-01-22T18:42:50.520Z,-2.00
2019-01-22T18:45:19.100Z,-2.10
2019-01-22T18:47:48.038Z,-2.20
2019-01-22T18:50:25.161Z,-2.20
2019-01-22T18:52:53.760Z,-2.30
2019-01-22T18:55:22.933Z,-2.30
2019-01-22T18:57:51.376Z,-2.30
2019-01-22T19:00:23.175Z,-2.30
2019-01-22T19:02:52.414Z,-2.30
2019-01-22T19:05:21.423Z,-2.30
2019-01-22T19:07:50.686Z,-2.30
2019-01-22T19:10:24.705Z,-2.30
2019-01-22T19:12:53.154Z,-2.30
2019-01-22T19:15:22.890Z,-2.30
2019-01-22T19:17:51.954Z,-1.90
2019-01-22T19:20:20.470Z,-0.60
2019-01-22T19:22:48.962Z,-0.10
2019-01-22T19:25:22.660Z,-0.40
2019-01-22T19:27:51.613Z,-0.90
2019-01-22T19:30:24.662Z,-1.30
2019-01-22T19:32:53.001Z,-1.50
2019-01-22T19:35:22.202Z,-1.70
2019-01-22T19:37:55.533Z,-1.90
2019-01-22T19:40:24.388Z,-2.10
2019-01-22T19:42:52.982Z,-2.20
2019-01-22T19:45:24.342Z,-2.20
2019-01-22T19:47:54.635Z,-2.30
2019-01-22T19:50:28.788Z,-2.20
2019-01-22T19:52:57.580Z,-2.20
2019-01-22T19:55:30.315Z,-2.20
2019-01-22T19:57:59.753Z,-2.20
2019-01-22T20:00:33.952Z,-2.30
2019-01-22T20:03:03.062Z,-2.30
2019-01-22T20:05:31.578Z,-2.30
2019-01-22T20:08:00.312Z,-2.30
2019-01-22T20:10:29.209Z,-2.30
2019-01-22T20:12:57.993Z,-2.30
2019-01-22T20:15:26.694Z,-2.30
2019-01-22T20:17:55.378Z,-2.30
2019-01-22T20:20:24.364Z,-2.30
2019-01-22T20:22:53.909Z,-2.30
2019-01-22T20:25:22.445Z,-2.30
2019-01-22T20:27:50.879Z,-2.30
2019-01-22T20:30:30.014Z,-2.30
2019-01-22T20:32:59.009Z,-2.30
2019-01-22T20:35:27.678Z,-2.30
2019-01-22T20:37:56.721Z,-2.30
2019-01-22T20:40:27.060Z,-2.20
2019-01-22T20:42:55.641Z,-2.20
2019-01-22T20:45:29.233Z,-2.20
2019-01-22T20:47:59.808Z,-2.30
2019-01-22T20:50:28.013Z,-2.30
2019-01-22T20:52:56.641Z,-2.30
2019-01-22T20:55:25.738Z,-2.30
2019-01-22T20:57:55.348Z,-2.30
2019-01-22T21:00:25.253Z,-2.40
2019-01-22T21:02:54.335Z,-2.30
2019-01-22T21:05:28.246Z,-2.20
2019-01-22T21:07:58.431Z,-2.30
2019-01-22T21:10:32.015Z,-2.40
2019-01-22T21:13:00.537Z,-2.40
2019-01-22T21:15:29.327Z,-2.30
2019-01-22T21:17:57.833Z,-2.30
2019-01-22T21:20:26.335Z,-2.30
2019-01-22T21:22:55.093Z,-2.30
2019-01-22T21:25:25.479Z,-2.30
2019-01-22T21:27:54.048Z,-2.30
2019-01-22T21:30:28.516Z,-2.30
2019-01-22T21:32:59.999Z,-2.20
2019-01-22T21:35:28.430Z,-2.20
2019-01-22T21:37:57.233Z,-2.20
2019-01-22T21:40:25.660Z,-2.20
2019-01-22T21:42:54.618Z,-2.30
2019-01-22T21:45:26.060Z,-2.20
2019-01-22T21:47:54.524Z,-2.30
2019-01-22T21:50:23.225Z,-2.20
2019-01-22T21:52:52.163Z,-2.20
2019-01-22T21:55:22.836Z,-2.20
2019-01-22T21:57:51.528Z,-2.20
2019-01-22T22:00:28.810Z,-2.20
2019-01-22T22:02:57.622Z,-2.20
2019-01-22T22:05:28.900Z,-2.20
2019-01-22T22:07:57.478Z,-2.20
2019-01-22T22:10:26.206Z,-2.30
2019-01-22T22:12:55.466Z,-2.30
2019-01-22T22:15:26.101Z,-2.30
2019-01-22T22:17:55.373Z,-2.30
2019-01-22T22:20:23.869Z,-2.30
2019-01-22T22:22:52.742Z,-2.30
2019-01-22T22:25:23.416Z,-2.30
2019-01-22T22:27:52.032Z,-2.30
2019-01-22T22:30:26.025Z,-2.20
2019-01-22T22:32:54.479Z,-2.20
2019-01-22T22:35:22.922Z,-2.30
2019-01-22T22:37:51.623Z,-2.30
2019-01-22T22:40:21.940Z,-2.30
2019-01-22T22:42:50.530Z,-2.20
2019-01-22T22:45:22.052Z,-2.30
2019-01-22T22:47:51.075Z,-2.30
2019-01-22T22:50:25.166Z,-2.30
2019-01-22T22:52:53.734Z,-2.20
2019-01-22T22:55:22.666Z,-2.30
2019-01-22T22:57:51.156Z,-2.20
2019-01-22T23:00:27.282Z,-2.30
2019-01-22T23:02:55.966Z,-2.40
2019-01-22T23:05:24.672Z,-2.30
2019-01-22T23:07:53.106Z,-2.30
2019-01-22T23:10:22.074Z,-2.30
2019-01-22T23:12:50.837Z,-2.30
2019-01-22T23:15:19.426Z,-2.30
2019-01-22T23:17:47.931Z,-2.30
2019-01-22T23:20:16.894Z,-2.30
2019-01-22T23:22:45.329Z,-2.40
2019-01-22T23:25:14.197Z,-2.40
2019-01-22T23:27:42.969Z,-2.40
2019-01-22T23:30:14.256Z,-2.30
2019-01-22T23:32:42.676Z,-2.40
2019-01-22T23:35:11.662Z,-2.40
2019-01-22T23:37:40.093Z,-2.40
2019-01-22T23:40:11.246Z,-2.50
2019-01-22T23:42:39.818Z,-2.50
2019-01-22T23:45:10.611Z,-2.50
2019-01-22T23:47:39.037Z,-2.40
2019-01-22T23:50:15.259Z,-2.50
2019-01-22T23:52:43.789Z,-2.50
2019-01-22T23:55:12.525Z,-2.60
2019-01-22T23:57:41.021Z,-2.50
